Time;durP1;ratioP1;P1;durP2;ratioP2;P2;SDS_P1;SDS_P2;PMS_P1;PMS_P2;Temp;Humidity;BMP_temperature;BMP_pressure;BME280_temperature;BME280_humidity;BME280_pressure;Samples;Min_cycle;Max_cycle;Signal;HPM_P1;HPM_P2
2022/01/25 00:09:49;;;;;;;39.50;35.80;;;0.80;93.90;;;;;;5052575;28;20245;-72
2022/01/25 00:15:10;;;;;;;40.40;36.88;;;0.80;93.40;;;;;;5052865;28;20271;-71
2022/01/25 00:26:04;;;;;;;37.70;34.30;;;0.80;95.50;;;;;;5052525;28;20546;-72
2022/01/25 00:28:44;;;;;;;40.47;36.85;;;0.70;95.10;;;;;;5052596;28;20562;-71
2022/01/25 00:31:13;;;;;;;42.05;37.40;;;0.70;95.00;;;;;;5051603;28;20220;-71
2022/01/25 00:33:43;;;;;;;38.38;35.08;;;0.70;94.80;;;;;;5052597;28;20204;-72
2022/01/25 00:36:14;;;;;;;39.30;35.70;;;0.70;94.60;;;;;;5052358;28;20202;-72
2022/01/25 00:38:40;;;;;;;34.53;31.63;;;0.70;94.40;;;;;;5052345;28;20207;-71
2022/01/25 00:41:07;;;;;;;37.55;34.08;;;0.70;94.30;;;;;;5052176;28;20223;-71
2022/01/25 00:43:35;;;;;;;38.40;34.95;;;0.70;94.20;;;;;;5052403;28;20202;-72
2022/01/25 00:46:06;;;;;;;38.35;34.75;;;0.70;94.10;;;;;;5052527;28;20616;-72
2022/01/25 00:48:43;;;;;;;39.22;35.45;;;0.70;94.10;;;;;;5052301;28;20266;-72
2022/01/25 00:51:36;;;;;;;37.70;34.53;;;0.60;94.10;;;;;;5051975;28;20223;-72
2022/01/25 00:54:10;;;;;;;38.38;34.97;;;0.70;94.10;;;;;;5052492;28;20287;-72
2022/01/25 00:56:39;;;;;;;37.67;34.38;;;0.70;94.00;;;;;;5052431;28;20238;-72
2022/01/25 00:59:08;;;;;;;37.92;34.53;;;0.80;93.60;;;;;;5052143;28;20204;-72
2022/01/25 01:01:36;;;;;;;38.45;34.75;;;0.80;92.90;;;;;;5052133;28;20295;-72
2022/01/25 01:04:04;;;;;;;38.20;34.90;;;0.90;92.70;;;;;;5052039;28;20292;-72
2022/01/25 01:06:33;;;;;;;36.80;33.28;;;0.70;92.70;;;;;;5052245;28;20688;-72
2022/01/25 01:09:00;;;;;;;37.78;34.45;;;0.60;93.10;;;;;;5051912;28;20208;-72
2022/01/25 01:11:37;;;;;;;37.63;34.35;;;0.50;93.50;;;;;;5052059;28;20757;-72
2022/01/25 01:14:13;;;;;;;38.20;34.67;;;0.60;93.60;;;;;;5052222;28;20200;-72
2022/01/25 01:16:59;;;;;;;37.15;33.70;;;0.50;93.50;;;;;;5052331;28;20199;-72
2022/01/25 01:30:43;;;;;;;37.60;34.15;;;0.30;94.70;;;;;;5051755;28;20261;-72
2022/01/25 01:33:38;;;;;;;38.97;35.55;;;0.40;94.50;;;;;;5051986;28;20204;-72
2022/01/25 01:44:22;;;;;;;38.38;35.05;;;0.30;94.10;;;;;;5046646;28;20192;-72
2022/01/25 01:47:06;;;;;;;37.80;34.50;;;0.30;94.00;;;;;;5055618;28;20287;-72
2022/01/25 01:49:39;;;;;;;37.28;34.00;;;0.30;93.90;;;;;;5055264;28;20193;-72
2022/01/25 01:52:07;;;;;;;38.55;35.03;;;0.30;93.70;;;;;;5055470;28;20307;-72
2022/01/25 01:54:36;;;;;;;39.50;35.80;;;0.20;93.70;;;;;;5055430;28;20203;-72
2022/01/25 01:57:03;;;;;;;38.13;34.30;;;0.10;94.20;;;;;;5055320;28;20193;-72
2022/01/25 01:59:31;;;;;;;38.03;33.83;;;0.10;94.40;;;;;;5055100;28;20202;-72
2022/01/25 02:01:58;;;;;;;38.05;34.63;;;0.10;94.40;;;;;;5055416;28;20207;-72
2022/01/25 02:04:26;;;;;;;36.67;33.78;;;0.20;94.30;;;;;;5055109;28;20228;-72
2022/01/25 02:06:53;;;;;;;37.45;34.03;;;0.20;94.30;;;;;;5055148;28;20203;-72
2022/01/25 02:09:26;;;;;;;282.38;59.47;;;0.20;94.40;;;;;;5054722;28;20201;-72
2022/01/25 02:11:54;;;;;;;38.67;35.17;;;0.20;94.50;;;;;;5055130;28;20307;-72
2022/01/25 02:14:21;;;;;;;38.85;35.25;;;0.20;94.80;;;;;;5054907;28;20658;-73
2022/01/25 02:17:04;;;;;;;38.13;34.47;;;0.20;94.70;;;;;;5055385;28;20196;-73
2022/01/25 02:22:33;;;;;;;37.95;34.65;;;0.20;94.60;;;;;;5055042;28;20192;-72
2022/01/25 02:25:00;;;;;;;38.80;35.40;;;0.20;94.50;;;;;;5054758;28;20208;-73
2022/01/25 02:27:28;;;;;;;39.03;35.42;;;0.20;94.50;;;;;;5054670;28;20730;-73
2022/01/25 02:29:54;;;;;;;77.10;36.90;;;0.20;94.50;;;;;;5054629;28;20212;-72
2022/01/25 02:32:21;;;;;;;40.15;36.00;;;0.20;94.60;;;;;;5054626;28;20555;-72
2022/01/25 02:34:49;;;;;;;38.40;34.92;;;0.30;94.70;;;;;;5054577;28;20657;-73
2022/01/25 02:37:19;;;;;;;39.53;35.67;;;0.30;94.70;;;;;;5054414;28;20232;-72
2022/01/25 02:39:46;;;;;;;39.45;35.95;;;0.30;94.70;;;;;;5054391;28;20319;-72
2022/01/25 02:42:15;;;;;;;39.35;36.03;;;0.30;94.50;;;;;;5054560;28;20224;-72
2022/01/25 02:44:43;;;;;;;39.88;36.13;;;0.30;94.50;;;;;;5054554;28;20224;-72
2022/01/25 02:49:56;;;;;;;39.83;35.88;;;0.30;94.10;;;;;;5054133;28;20309;-72
2022/01/25 02:52:26;;;;;;;40.58;36.85;;;0.30;94.30;;;;;;5054176;28;20303;-71
2022/01/25 02:54:53;;;;;;;39.00;35.50;;;0.30;94.40;;;;;;5053655;28;20200;-71
2022/01/25 02:57:20;;;;;;;41.05;37.25;;;0.30;94.40;;;;;;5054127;28;20672;-71
2022/01/25 02:59:47;;;;;;;295.92;62.22;;;0.30;94.30;;;;;;5053935;28;20698;-71
2022/01/25 03:02:14;;;;;;;41.22;37.38;;;0.30;95.50;;;;;;5053947;28;20256;-71
2022/01/25 03:04:41;;;;;;;41.72;37.83;;;0.30;95.30;;;;;;5053814;28;20670;-71
2022/01/25 03:07:09;;;;;;;40.30;36.50;;;0.30;95.10;;;;;;5053934;28;20561;-71
2022/01/25 03:09:39;;;;;;;43.42;39.30;;;0.30;94.90;;;;;;5053520;28;20558;-71
2022/01/25 03:12:12;;;;;;;42.63;38.33;;;0.30;94.80;;;;;;5053991;28;20315;-71
2022/01/25 03:14:57;;;;;;;42.92;39.08;;;0.30;94.90;;;;;;5054044;28;20204;-70
2022/01/25 03:17:29;;;;;;;42.35;38.17;;;0.30;94.70;;;;;;5053955;28;20207;-71
2022/01/25 03:20:04;;;;;;;1522.78;245.52;;;0.30;94.70;;;;;;5053553;28;20677;-71
2022/01/25 03:22:45;;;;;;;68.22;44.25;;;0.30;97.40;;;;;;5053767;28;20227;-71
2022/01/25 03:25:13;;;;;;;288.77;67.03;;;0.30;97.50;;;;;;5053504;28;20700;-71
2022/01/25 03:27:40;;;;;;;1835.18;291.17;;;0.40;98.20;;;;;;5053502;28;20200;-72
2022/01/25 03:30:08;;;;;;;1934.53;309.38;;;0.40;99.90;;;;;;5053349;28;20243;-70
2022/01/25 03:32:35;;;;;;;46.10;40.80;;;0.50;99.90;;;;;;5053534;28;20321;-71
2022/01/25 03:35:02;;;;;;;47.17;42.30;;;0.50;99.90;;;;;;5053516;28;20581;-71
2022/01/25 03:37:29;;;;;;;47.40;42.63;;;0.50;99.50;;;;;;5053364;28;20288;-71
2022/01/25 03:39:56;;;;;;;46.83;42.00;;;0.40;98.90;;;;;;5052983;28;20217;-71
2022/01/25 03:42:25;;;;;;;45.80;41.10;;;0.50;98.70;;;;;;5053346;28;20203;-71
2022/01/25 03:44:52;;;;;;;47.72;42.70;;;0.50;97.90;;;;;;5053386;28;20616;-71
2022/01/25 03:47:29;;;;;;;1157.35;177.52;;;0.50;97.70;;;;;;5053323;28;20199;-71
2022/01/25 03:49:55;;;;;;;691.35;113.78;;;0.50;99.00;;;;;;5052789;28;20228;-71
2022/01/25 03:52:27;;;;;;;1999.90;779.00;;;0.60;99.90;;;;;;5053122;28;20247;-71
2022/01/25 03:54:55;;;;;;;74.30;44.95;;;0.50;99.90;;;;;;5053103;28;20557;-71
2022/01/25 03:57:25;;;;;;;1999.90;535.33;;;0.60;99.90;;;;;;5053018;28;20276;-71
2022/01/25 03:59:52;;;;;;;1657.85;275.30;;;0.50;99.90;;;;;;5052748;28;20216;-71
2022/01/25 04:02:20;;;;;;;49.88;44.75;;;0.50;99.90;;;;;;5052980;28;20283;-71
2022/01/25 04:04:47;;;;;;;49.60;44.55;;;0.60;99.90;;;;;;5051914;28;20259;-70
2022/01/25 04:07:18;;;;;;;48.40;43.20;;;0.60;99.40;;;;;;5052774;28;20749;-71
2022/01/25 04:09:44;;;;;;;50.47;45.15;;;0.50;98.60;;;;;;5052510;28;20712;-71
2022/01/25 04:12:13;;;;;;;112.07;50.00;;;0.50;98.50;;;;;;5052939;28;20243;-71
2022/01/25 04:14:41;;;;;;;118.55;48.60;;;0.50;97.90;;;;;;5052848;28;20250;-71
2022/01/25 04:17:11;;;;;;;1999.90;370.80;;;0.50;97.80;;;;;;5052723;28;20274;-71
2022/01/25 04:19:42;;;;;;;49.83;45.08;;;0.60;97.90;;;;;;5052572;28;20217;-71
2022/01/25 04:25:07;;;;;;;49.95;44.95;;;0.50;97.70;;;;;;5052778;28;20605;-71
2022/01/25 04:27:35;;;;;;;47.92;43.03;;;0.50;97.10;;;;;;5052781;28;20201;-71
2022/01/25 04:30:05;;;;;;;47.95;43.25;;;0.40;96.20;;;;;;5052411;28;20334;-71
2022/01/25 04:32:40;;;;;;;47.53;42.63;;;0.40;96.30;;;;;;5052593;28;20220;-72
2022/01/25 04:35:24;;;;;;;45.28;40.95;;;0.40;95.80;;;;;;5052568;28;20644;-72
2022/01/25 04:48:57;;;;;;;45.55;40.72;;;0.50;96.10;;;;;;5052446;28;20266;-71
2022/01/25 04:51:40;;;;;;;1999.90;744.33;;;0.50;97.70;;;;;;5052275;28;20235;-71
2022/01/25 04:54:14;;;;;;;1792.45;305.52;;;0.50;97.20;;;;;;5052323;28;20207;-71
2022/01/25 04:56:47;;;;;;;404.33;78.32;;;0.50;97.20;;;;;;5052264;28;20219;-72
2022/01/25 04:59:21;;;;;;;64.45;44.45;;;0.50;99.60;;;;;;5052104;28;20200;-71
2022/01/25 05:01:53;;;;;;;49.72;44.83;;;0.50;99.10;;;;;;5052490;28;20682;-71
2022/01/25 05:04:25;;;;;;;46.55;41.85;;;0.60;98.60;;;;;;5052270;28;20288;-71
2022/01/25 05:06:56;;;;;;;48.63;44.03;;;0.60;97.60;;;;;;5052253;28;20723;-71
2022/01/25 05:09:23;;;;;;;46.42;42.13;;;0.50;96.70;;;;;;5051798;28;20270;-71
2022/01/25 05:11:50;;;;;;;46.00;41.42;;;0.40;96.70;;;;;;5052335;28;20207;-72
2022/01/25 05:14:24;;;;;;;309.13;75.80;;;0.30;96.20;;;;;;5052128;28;20207;-71
2022/01/25 05:16:57;;;;;;;108.20;47.28;;;0.40;96.20;;;;;;5053827;28;20291;-71
2022/01/25 05:22:24;;;;;;;46.70;42.30;;;0.30;98.10;;;;;;5056002;28;20264;-71
2022/01/25 05:24:53;;;;;;;48.40;43.92;;;0.20;98.20;;;;;;5055958;28;20235;-71
2022/01/25 05:27:23;;;;;;;48.17;43.53;;;0.20;97.50;;;;;;5055970;28;20203;-71
2022/01/25 05:29:50;;;;;;;47.17;42.65;;;0.30;97.20;;;;;;5055606;28;20228;-70
2022/01/25 05:32:18;;;;;;;47.10;42.35;;;0.30;96.60;;;;;;5055681;28;20220;-71
2022/01/25 05:34:45;;;;;;;46.92;42.20;;;0.30;95.90;;;;;;5055786;28;20585;-71
2022/01/25 05:37:12;;;;;;;46.33;41.80;;;0.30;95.90;;;;;;5055771;28;20302;-71
2022/01/25 05:39:39;;;;;;;45.03;40.67;;;0.30;95.40;;;;;;5055363;28;20299;-71
2022/01/25 05:42:29;;;;;;;45.80;41.38;;;0.30;94.80;;;;;;5055844;28;20203;-71
2022/01/25 05:45:12;;;;;;;44.55;40.08;;;0.20;95.80;;;;;;5055589;28;20287;-71
2022/01/25 05:47:43;;;;;;;45.78;41.53;;;0.10;95.60;;;;;;5055670;28;20531;-71
2022/01/25 05:50:12;;;;;;;45.28;40.90;;;0.00;95.40;;;;;;5055296;28;20307;-71
2022/01/25 05:52:39;;;;;;;46.38;41.97;;;0.00;95.30;;;;;;5055436;28;20224;-71
2022/01/25 05:55:07;;;;;;;45.65;41.40;;;0.10;95.30;;;;;;5055323;28;20196;-71
2022/01/25 05:57:34;;;;;;;792.17;130.57;;;0.00;95.20;;;;;;5055396;28;20196;-71
2022/01/25 06:00:02;;;;;;;347.23;71.07;;;0.00;96.30;;;;;;5055154;28;20216;-71
2022/01/25 06:02:31;;;;;;;92.15;47.10;;;0.10;98.50;;;;;;5055179;28;20197;-71
2022/01/25 06:04:59;;;;;;;46.75;42.35;;;0.10;98.50;;;;;;5054915;28;20638;-71
2022/01/25 06:07:27;;;;;;;46.88;42.15;;;0.10;97.20;;;;;;5055209;28;20243;-71
2022/01/25 06:09:54;;;;;;;44.88;40.25;;;0.10;96.50;;;;;;5054713;28;20221;-71
2022/01/25 06:12:21;;;;;;;1767.47;290.10;;;0.10;96.00;;;;;;5055023;28;20693;-71
2022/01/25 06:14:48;;;;;;;48.97;44.17;;;0.10;97.10;;;;;;5054975;28;20201;-70
2022/01/25 06:17:15;;;;;;;49.55;45.00;;;0.00;98.00;;;;;;5054907;28;20729;-71
2022/01/25 06:19:43;;;;;;;47.85;43.42;;;0.10;97.20;;;;;;5054680;28;20303;-71
2022/01/25 06:22:11;;;;;;;46.83;42.40;;;0.10;95.90;;;;;;5054758;28;20203;-70
2022/01/25 06:24:38;;;;;;;50.35;45.53;;;-0.10;95.60;;;;;;5054716;28;20193;-70
2022/01/25 06:27:06;;;;;;;47.45;42.95;;;-0.10;95.30;;;;;;5054870;28;20303;-71
2022/01/25 06:29:33;;;;;;;45.65;41.40;;;-0.10;95.40;;;;;;5053551;28;20223;-71
2022/01/25 06:32:00;;;;;;;48.28;43.40;;;-0.10;95.00;;;;;;5054774;28;20219;-71
2022/01/25 06:34:27;;;;;;;45.22;40.97;;;0.00;94.50;;;;;;5054528;28;20363;-70
2022/01/25 06:36:54;;;;;;;45.10;40.60;;;-0.10;94.10;;;;;;5054661;28;20201;-70
2022/01/25 06:39:22;;;;;;;46.90;42.15;;;-0.10;93.90;;;;;;5054599;28;20205;-71
2022/01/25 06:41:49;;;;;;;46.03;41.47;;;-0.20;93.80;;;;;;5054770;28;20291;-71
2022/01/25 06:44:16;;;;;;;46.42;42.17;;;-0.30;94.30;;;;;;5054566;28;20284;-70
2022/01/25 06:46:45;;;;;;;43.25;39.33;;;-0.30;94.50;;;;;;5054458;28;20232;-72
2022/01/25 06:49:13;;;;;;;46.15;41.92;;;-0.30;94.60;;;;;;5054158;28;20209;-72
2022/01/25 06:51:39;;;;;;;45.92;41.55;;;-0.30;96.00;;;;;;5054416;28;20203;-73
2022/01/25 06:54:06;;;;;;;45.03;40.47;;;-0.30;95.10;;;;;;5054252;28;20225;-71
2022/01/25 06:56:35;;;;;;;45.10;40.92;;;-0.30;94.40;;;;;;5054254;28;20203;-71
2022/01/25 06:59:02;;;;;;;45.83;41.42;;;-0.40;94.30;;;;;;5054125;28;20199;-72
2022/01/25 07:01:30;;;;;;;46.95;42.60;;;-0.50;94.30;;;;;;5053979;28;20312;-71
2022/01/25 07:03:57;;;;;;;46.13;41.63;;;-0.50;94.50;;;;;;5053739;28;20193;-71
2022/01/25 07:06:24;;;;;;;57.63;42.63;;;-0.30;93.80;;;;;;5054068;28;20228;-72
2022/01/25 07:08:51;;;;;;;47.00;42.35;;;-0.30;93.50;;;;;;5053924;28;20201;-71
2022/01/25 07:11:18;;;;;;;46.92;42.42;;;-0.30;93.50;;;;;;5053775;28;20217;-70
2022/01/25 07:13:47;;;;;;;46.67;41.65;;;-0.30;93.70;;;;;;5053945;28;20216;-70
2022/01/25 07:16:14;;;;;;;48.60;43.50;;;-0.30;93.80;;;;;;5053804;28;20250;-70
2022/01/25 07:18:41;;;;;;;47.60;43.05;;;-0.30;93.50;;;;;;5053792;28;20198;-70
2022/01/25 07:21:08;;;;;;;48.30;43.88;;;-0.40;93.50;;;;;;5053575;28;20217;-70
2022/01/25 07:23:35;;;;;;;48.72;43.83;;;-0.40;93.80;;;;;;5053795;28;20193;-71
2022/01/25 07:26:02;;;;;;;46.80;42.13;;;-0.50;93.90;;;;;;5053594;28;20607;-71
2022/01/25 07:28:29;;;;;;;48.47;43.88;;;-0.50;94.10;;;;;;5053415;28;20204;-71
2022/01/25 07:30:58;;;;;;;47.90;43.17;;;-0.40;93.50;;;;;;5053245;28;20571;-70
2022/01/25 07:33:24;;;;;;;48.22;43.72;;;-0.40;93.70;;;;;;5053503;28;20574;-71
2022/01/25 07:35:51;;;;;;;47.90;43.20;;;-0.40;94.10;;;;;;5053413;28;20203;-71
2022/01/25 07:38:18;;;;;;;48.60;44.00;;;-0.30;94.00;;;;;;5053342;28;20200;-71
2022/01/25 07:40:45;;;;;;;46.72;42.22;;;-0.30;93.90;;;;;;5052961;28;20641;-70
2022/01/25 07:43:12;;;;;;;44.65;40.53;;;-0.10;93.80;;;;;;5053347;28;20697;-70
2022/01/25 07:45:39;;;;;;;46.83;42.22;;;-0.10;93.50;;;;;;5053283;28;20315;-70
2022/01/25 07:48:10;;;;;;;48.33;43.78;;;-0.10;93.50;;;;;;5053257;28;20200;-71
2022/01/25 07:50:38;;;;;;;46.10;41.88;;;-0.10;93.40;;;;;;5053062;28;20216;-71
2022/01/25 07:53:05;;;;;;;48.47;43.85;;;0.00;93.10;;;;;;5053281;28;20582;-71
2022/01/25 07:55:32;;;;;;;45.22;41.10;;;0.00;93.00;;;;;;5053177;28;20626;-71
2022/01/25 07:57:59;;;;;;;47.38;42.85;;;0.00;92.80;;;;;;5052952;28;20661;-71
2022/01/25 08:00:26;;;;;;;44.60;40.35;;;0.10;92.80;;;;;;5052840;28;20232;-70
2022/01/25 08:02:53;;;;;;;45.33;41.13;;;0.10;92.80;;;;;;5052951;28;20199;-71
2022/01/25 08:05:24;;;;;;;48.78;43.85;;;0.10;92.80;;;;;;5052660;28;20200;-71
2022/01/25 08:07:51;;;;;;;48.22;43.85;;;0.20;92.80;;;;;;5052902;28;20284;-71
2022/01/25 08:10:18;;;;;;;51.55;46.42;;;0.30;92.50;;;;;;5052535;28;20221;-71
2022/01/25 08:12:45;;;;;;;51.42;46.63;;;0.40;92.30;;;;;;5052773;28;20757;-71
2022/01/25 08:15:13;;;;;;;49.53;44.70;;;0.50;92.10;;;;;;5052725;28;20717;-71
2022/01/25 08:17:40;;;;;;;48.10;43.50;;;0.60;91.80;;;;;;5052794;28;20201;-71
2022/01/25 08:20:07;;;;;;;48.40;43.90;;;0.70;91.90;;;;;;5052400;28;20303;-71
2022/01/25 08:22:36;;;;;;;50.95;45.67;;;0.70;91.80;;;;;;5052731;28;20292;-71
2022/01/25 08:25:05;;;;;;;46.95;42.67;;;0.80;92.00;;;;;;5052378;28;20219;-71
2022/01/25 08:27:32;;;;;;;48.28;43.42;;;0.90;91.90;;;;;;5052451;28;20200;-72
2022/01/25 08:29:59;;;;;;;46.92;42.28;;;1.00;91.60;;;;;;5052255;28;20276;-71
2022/01/25 08:32:26;;;;;;;1598.45;247.90;;;1.20;91.30;;;;;;5052567;28;20211;-71
2022/01/25 08:34:53;;;;;;;61.33;54.78;;;1.20;95.90;;;;;;5052360;28;20645;-71
2022/01/25 08:37:19;;;;;;;100.78;79.25;;;1.20;97.30;;;;;;5052546;28;20279;-71
2022/01/25 08:39:48;;;;;;;192.18;130.70;;;1.30;98.50;;;;;;5052100;28;20307;-71
2022/01/25 08:42:15;;;;;;;771.10;303.30;;;1.30;99.10;;;;;;5052329;28;20612;-71
2022/01/25 08:44:41;;;;;;;1999.90;779.78;;;1.50;99.90;;;;;;5052542;28;20188;-71
2022/01/25 08:47:09;;;;;;;1999.90;504.05;;;1.60;99.90;;;;;;5052354;28;20196;-71
2022/01/25 08:49:38;;;;;;;116.90;85.82;;;1.70;99.90;;;;;;5052039;28;20217;-71
2022/01/25 08:52:05;;;;;;;81.72;62.33;;;1.70;99.90;;;;;;5054564;28;20196;-71
2022/01/25 08:54:33;;;;;;;71.50;56.20;;;1.80;98.60;;;;;;5056470;28;20216;-71
2022/01/25 08:57:02;;;;;;;62.30;53.97;;;1.90;98.10;;;;;;5056485;28;20654;-71
2022/01/25 08:59:29;;;;;;;56.50;50.10;;;1.90;97.30;;;;;;5056223;28;20196;-72
2022/01/25 09:01:56;;;;;;;54.40;48.10;;;2.00;96.80;;;;;;5056699;28;20565;-71
2022/01/25 09:04:23;;;;;;;916.88;139.73;;;2.00;95.70;;;;;;5056139;28;20670;-71
2022/01/25 09:06:50;;;;;;;1999.90;650.45;;;2.00;96.20;;;;;;5056287;28;20278;-71
2022/01/25 09:09:18;;;;;;;139.00;58.65;;;2.10;98.10;;;;;;5055782;28;20200;-71
2022/01/25 09:11:45;;;;;;;330.70;77.68;;;2.10;96.40;;;;;;5056310;28;20239;-71
2022/01/25 09:14:14;;;;;;;1211.55;178.00;;;2.10;96.10;;;;;;5056175;28;20725;-71
2022/01/25 09:16:41;;;;;;;619.72;129.15;;;2.20;96.70;;;;;;5056102;28;20196;-71
2022/01/25 09:19:08;;;;;;;349.77;87.25;;;2.20;95.10;;;;;;5055997;28;20291;-71
2022/01/25 09:21:35;;;;;;;125.80;54.75;;;2.40;94.60;;;;;;5055834;28;20728;-71
2022/01/25 09:24:02;;;;;;;77.18;48.17;;;2.40;92.70;;;;;;5056053;28;20224;-71
2022/01/25 09:26:29;;;;;;;82.18;48.17;;;2.40;92.10;;;;;;5055752;28;20254;-71
2022/01/25 09:28:58;;;;;;;58.97;45.95;;;2.50;92.50;;;;;;5055889;28;20197;-71
2022/01/25 09:31:27;;;;;;;48.53;43.35;;;2.60;91.90;;;;;;5055656;28;20254;-71
2022/01/25 09:33:55;;;;;;;48.13;43.55;;;2.80;91.30;;;;;;5055570;28;20753;-72
2022/01/25 09:36:24;;;;;;;48.30;42.13;;;2.80;90.10;;;;;;5055759;28;20673;-71
2022/01/25 09:38:51;;;;;;;47.30;42.60;;;2.80;89.90;;;;;;5055541;28;20204;-71
2022/01/25 09:41:19;;;;;;;48.10;43.17;;;3.00;89.80;;;;;;5055592;28;20221;-71
2022/01/25 09:43:46;;;;;;;47.63;43.00;;;3.10;89.40;;;;;;5055683;28;20192;-71
2022/01/25 09:46:13;;;;;;;45.33;40.80;;;3.10;88.90;;;;;;5055890;28;20295;-71
2022/01/25 09:48:41;;;;;;;46.28;41.70;;;3.10;87.60;;;;;;5055426;28;20666;-70
2022/01/25 09:51:10;;;;;;;46.80;42.05;;;3.20;87.90;;;;;;5055238;28;20224;-71
2022/01/25 09:53:38;;;;;;;47.63;43.13;;;3.30;87.60;;;;;;5055382;28;20226;-71
2022/01/25 09:56:06;;;;;;;45.72;40.92;;;3.40;87.10;;;;;;5055428;28;20205;-71
2022/01/25 09:58:33;;;;;;;42.88;38.95;;;3.50;86.50;;;;;;5055316;28;20201;-71
2022/01/25 10:01:02;;;;;;;44.15;39.85;;;3.50;85.40;;;;;;5055154;28;20307;-71
2022/01/25 10:03:34;;;;;;;44.33;40.42;;;3.60;86.30;;;;;;5055187;28;20275;-71
2022/01/25 10:06:04;;;;;;;45.83;41.58;;;3.70;85.90;;;;;;5055145;28;20201;-71
2022/01/25 10:08:33;;;;;;;43.28;39.28;;;3.60;84.50;;;;;;5055167;28;20283;-71
2022/01/25 10:11:01;;;;;;;46.30;41.90;;;3.60;84.80;;;;;;5054788;28;20235;-71
2022/01/25 10:13:30;;;;;;;46.47;41.83;;;3.70;84.30;;;;;;5055272;28;20200;-71
2022/01/25 10:16:02;;;;;;;45.78;41.75;;;3.70;83.00;;;;;;5055171;28;20200;-71
2022/01/25 10:18:44;;;;;;;50.35;45.88;;;3.80;83.10;;;;;;5055175;28;20193;-71
2022/01/25 10:21:15;;;;;;;48.22;43.75;;;3.80;82.10;;;;;;5054943;28;20263;-71
2022/01/25 10:24:03;;;;;;;49.22;44.72;;;3.80;82.50;;;;;;5054914;28;20192;-71
2022/01/25 10:26:32;;;;;;;47.40;43.03;;;4.00;82.70;;;;;;5054745;28;20226;-70
2022/01/25 10:28:59;;;;;;;47.85;42.95;;;4.00;82.20;;;;;;5054787;28;20200;-71
2022/01/25 10:31:35;;;;;;;50.25;45.50;;;4.10;84.60;;;;;;5054589;28;20577;-71
2022/01/25 10:34:02;;;;;;;50.47;45.58;;;4.20;85.20;;;;;;5054623;28;20307;-72
2022/01/25 10:36:30;;;;;;;47.92;43.40;;;4.20;85.90;;;;;;5054534;28;20300;-71
2022/01/25 10:38:58;;;;;;;50.05;45.13;;;4.20;82.50;;;;;;5054498;28;20733;-71
2022/01/25 10:41:26;;;;;;;47.40;43.08;;;4.20;81.90;;;;;;5054486;28;20216;-71
2022/01/25 10:43:55;;;;;;;50.10;45.60;;;4.10;81.70;;;;;;5054454;28;20193;-71
2022/01/25 10:46:25;;;;;;;49.00;44.55;;;4.30;81.30;;;;;;5054456;28;20207;-71
2022/01/25 10:48:55;;;;;;;47.17;42.65;;;4.30;80.70;;;;;;5054218;28;20658;-71
2022/01/25 10:51:26;;;;;;;47.45;43.40;;;4.30;80.90;;;;;;5054150;28;20221;-71
2022/01/25 10:54:08;;;;;;;48.17;43.47;;;4.40;80.40;;;;;;5054317;28;20224;-71
2022/01/25 10:56:41;;;;;;;48.05;43.95;;;4.40;80.20;;;;;;5054377;28;20197;-71
2022/01/25 10:59:12;;;;;;;47.75;43.38;;;4.30;81.10;;;;;;5054138;28;20307;-71
2022/01/25 11:01:40;;;;;;;52.40;47.20;;;4.40;80.90;;;;;;5054165;28;20217;-71
2022/01/25 11:04:10;;;;;;;48.08;43.58;;;4.50;81.60;;;;;;5053971;28;20654;-71
2022/01/25 11:06:38;;;;;;;50.42;45.97;;;4.40;80.70;;;;;;5053996;28;20200;-71
2022/01/25 11:09:09;;;;;;;46.05;42.15;;;4.40;80.70;;;;;;5053913;28;20673;-71
2022/01/25 11:11:40;;;;;;;49.72;45.60;;;4.60;80.10;;;;;;5054076;28;20220;-71
2022/01/25 11:16:54;;;;;;;49.75;45.15;;;4.60;80.70;;;;;;5054246;28;20663;-71
2022/01/25 11:19:21;;;;;;;51.95;46.72;;;4.80;80.70;;;;;;5053539;28;20232;-71
2022/01/25 11:21:49;;;;;;;48.10;43.35;;;4.90;80.30;;;;;;5053817;28;20200;-71
2022/01/25 11:24:19;;;;;;;50.75;45.90;;;4.80;80.00;;;;;;5053494;28;20237;-71
2022/01/25 11:26:48;;;;;;;48.78;44.25;;;4.90;79.70;;;;;;5053583;28;20295;-71
2022/01/25 11:29:15;;;;;;;50.47;45.97;;;5.00;79.00;;;;;;5053504;28;20200;-71
2022/01/25 11:31:48;;;;;;;48.88;44.55;;;4.80;80.70;;;;;;5053667;28;20531;-71
2022/01/25 11:34:17;;;;;;;47.78;43.38;;;4.80;84.50;;;;;;5053499;28;20712;-71
2022/01/25 11:36:47;;;;;;;48.83;44.47;;;4.80;82.20;;;;;;5053391;28;20203;-71
2022/01/25 11:39:19;;;;;;;50.03;45.25;;;4.80;80.00;;;;;;5053177;28;20197;-71
2022/01/25 11:41:46;;;;;;;51.03;46.20;;;5.00;79.30;;;;;;5053521;28;20288;-71
2022/01/25 11:44:18;;;;;;;49.63;44.92;;;5.00;79.10;;;;;;5053256;28;20197;-71
2022/01/25 11:46:56;;;;;;;51.08;46.30;;;5.00;78.60;;;;;;5053404;28;20196;-71
2022/01/25 11:49:24;;;;;;;45.78;41.65;;;5.20;78.90;;;;;;5052899;28;20558;-71
2022/01/25 11:52:07;;;;;;;49.10;44.30;;;5.20;79.20;;;;;;5053266;28;20551;-71
2022/01/25 11:54:37;;;;;;;47.55;43.50;;;5.30;78.70;;;;;;5053076;28;20212;-71
2022/01/25 11:57:12;;;;;;;49.38;44.88;;;5.30;78.90;;;;;;5053090;28;20192;-71
2022/01/25 11:59:40;;;;;;;48.97;44.88;;;5.40;78.80;;;;;;5052846;28;20712;-71
2022/01/25 12:02:07;;;;;;;51.30;46.67;;;5.40;78.40;;;;;;5053011;28;20735;-71
2022/01/25 12:04:34;;;;;;;48.75;44.22;;;5.50;78.50;;;;;;5052824;28;20543;-71
2022/01/25 12:07:09;;;;;;;53.22;47.97;;;5.50;77.90;;;;;;5052955;28;20315;-71
2022/01/25 12:09:49;;;;;;;52.15;47.28;;;5.50;78.00;;;;;;5052669;28;20327;-71
2022/01/25 12:12:17;;;;;;;51.03;46.17;;;5.50;78.40;;;;;;5052955;28;20204;-71
2022/01/25 12:14:48;;;;;;;52.78;47.95;;;5.50;78.50;;;;;;5052776;28;20220;-71
2022/01/25 12:17:18;;;;;;;50.63;45.72;;;5.40;79.30;;;;;;5052935;28;20207;-71
2022/01/25 12:19:48;;;;;;;51.00;46.00;;;5.50;79.90;;;;;;5052552;28;20765;-71
2022/01/25 12:22:30;;;;;;;53.25;48.33;;;5.50;80.10;;;;;;5052758;28;20247;-71
2022/01/25 12:25:07;;;;;;;51.95;46.80;;;5.40;79.20;;;;;;5052638;28;20215;-71
2022/01/25 12:27:54;;;;;;;50.65;46.15;;;5.40;79.30;;;;;;5051982;28;20211;-71
2022/01/25 12:30:33;;;;;;;51.20;46.33;;;5.50;79.50;;;;;;5052414;28;20220;-71
2022/01/25 12:33:02;;;;;;;49.78;45.15;;;5.70;78.00;;;;;;5052499;28;20200;-71
2022/01/25 12:35:35;;;;;;;52.10;46.58;;;5.70;77.70;;;;;;5052341;28;20258;-71
2022/01/25 12:38:11;;;;;;;53.50;48.17;;;5.70;77.70;;;;;;5052531;28;20226;-71
2022/01/25 12:40:51;;;;;;;53.10;47.83;;;5.70;77.70;;;;;;5052038;28;20216;-71
2022/01/25 12:43:21;;;;;;;53.42;48.42;;;5.70;78.00;;;;;;5052501;28;20653;-71
2022/01/25 12:45:51;;;;;;;51.97;47.17;;;5.40;78.60;;;;;;5052443;28;20204;-71
2022/01/25 12:48:20;;;;;;;51.92;46.92;;;5.40;79.20;;;;;;5052478;28;20235;-71
2022/01/25 12:50:50;;;;;;;55.15;50.10;;;5.20;79.90;;;;;;5052160;28;20221;-71
2022/01/25 12:53:20;;;;;;;54.10;49.00;;;5.00;80.00;;;;;;5052478;28;20196;-71
2022/01/25 12:55:51;;;;;;;51.97;47.05;;;5.10;80.20;;;;;;5052432;28;20219;-71
2022/01/25 12:58:20;;;;;;;51.30;46.70;;;5.20;80.50;;;;;;5052442;28;20212;-71
2022/01/25 13:00:55;;;;;;;53.75;48.25;;;5.30;80.50;;;;;;5052142;28;20231;-71
2022/01/25 13:03:29;;;;;;;51.47;46.40;;;5.40;79.80;;;;;;5052431;28;20195;-71
2022/01/25 13:05:58;;;;;;;51.95;47.40;;;5.50;80.40;;;;;;5052142;28;20661;-71
2022/01/25 13:08:34;;;;;;;50.40;45.70;;;5.50;80.30;;;;;;5052133;28;20283;-71
2022/01/25 13:11:25;;;;;;;52.03;47.17;;;5.40;79.70;;;;;;5052019;28;20303;-71
2022/01/25 13:14:16;;;;;;;52.05;47.03;;;5.50;79.70;;;;;;5052271;28;20201;-71
2022/01/25 13:16:55;;;;;;;53.33;48.08;;;5.50;79.40;;;;;;5052175;28;20614;-71
2022/01/25 13:19:24;;;;;;;52.97;47.83;;;5.70;81.70;;;;;;5051992;28;20258;-71
2022/01/25 13:21:54;;;;;;;51.97;46.97;;;5.70;80.90;;;;;;5052239;28;20274;-71
2022/01/25 13:24:25;;;;;;;53.28;47.92;;;5.70;79.10;;;;;;5052132;28;20283;-71
2022/01/25 13:26:58;;;;;;;53.05;47.88;;;5.70;79.10;;;;;;5052052;28;20292;-71
2022/01/25 13:32:21;;;;;;;52.70;47.35;;;5.70;78.70;;;;;;5052446;28;20215;-71
2022/01/25 13:35:22;;;;;;;53.38;48.38;;;5.80;78.20;;;;;;5052038;28;20299;-71
2022/01/25 13:38:05;;;;;;;53.33;47.75;;;5.80;79.30;;;;;;5042591;28;20200;-71
2022/01/25 13:40:44;;;;;;;51.85;46.95;;;5.60;79.60;;;;;;5055522;28;20586;-73
2022/01/25 13:46:14;;;;;;;54.50;49.10;;;5.80;77.90;;;;;;4999023;28;20230;-71
2022/01/25 13:48:41;;;;;;;52.70;47.83;;;5.60;78.30;;;;;;5055498;28;20207;-71
2022/01/25 13:51:12;;;;;;;53.50;48.15;;;5.50;78.70;;;;;;5055264;28;20566;-72
2022/01/25 13:53:42;;;;;;;52.78;47.67;;;5.50;79.60;;;;;;5055630;28;20292;-71
2022/01/25 13:56:12;;;;;;;51.88;47.10;;;5.70;78.60;;;;;;5055380;28;20308;-71
2022/01/25 13:58:42;;;;;;;52.67;47.47;;;5.70;78.70;;;;;;5055529;28;20250;-71